Flight Track Log - Related Links

Times and Time Zones

All times are in EDT time to prevent confusion due to time zone crossing. See the SWA1930 flight status page for this flight to view local times or setup timezone preferences in your user account.

Time Position Orientation Groundspeed Altitude Reporting Facility
EDT Latitude Longitude Course Direction KTS MPH feet Rate Location/Type
Sun 07:00:09 PM 33.9453 -118.4550 267° West 164 189 1,600  Level Los Angeles Center
Sun 07:01:11 PM 33.9419 -118.5281 270° West 219 252 3,500 2,661 Climbing Los Angeles Center
Sun 07:02:13 PM 33.9333 -118.6253 264° West 268 308 7,100 3,387 Climbing Los Angeles Center
Sun 07:03:15 PM 33.9258 -118.7228 265° West 288 331 10,500 2,516 Climbing Los Angeles Center
Sun 07:04:17 PM 33.9183 -118.8278 265° West 337 388 12,300 2,371 Climbing Los Angeles Center
Sun 07:05:19 PM 33.9472 -118.9478 286° West 370 426 15,400 3,097 Climbing Los Angeles Center
Sun 07:06:21 PM 34.0306 -119.0689 310° West 394 453 18,700 2,903 Climbing Los Angeles Center
Sun 07:07:23 PM 34.1025 -119.1747 309° West 405 466 21,400 2,468 Climbing Los Angeles Center
Sun 07:08:25 PM 34.1772 -119.2833 310° West 419 482 23,800 2,129 Climbing Los Angeles Center
Sun 07:09:27 PM 34.2525 -119.3964 309° West 428 493 25,800 1,839 Climbing Los Angeles Center
Sun 07:10:29 PM 34.3319 -119.5142 309° West 448 516 27,600 1,742 Climbing Los Angeles Center
Sun 07:11:31 PM 34.4144 -119.6339 310° West 461 531 29,400 2,177 Climbing Los Angeles Center
Sun 07:12:33 PM 34.5122 -119.7781 309° West 462 532 32,100 2,129 Climbing Los Angeles Center
Sun 07:13:35 PM 34.6100 -119.8811 319° Northwest 461 531 33,800 1,548 Climbing Los Angeles Center
Sun 07:14:37 PM 34.6936 -119.9731 318° Northwest 461 531 35,300 1,065 Climbing Los Angeles Center
Sun 07:15:39 PM 34.8100 -120.1008 318° Northwest 465 535 36,000 339 Climbing Los Angeles Center
Sun 07:16:41 PM 34.8981 -120.1972 318° Northwest 473 544 36,000  Level Los Angeles Center
Sun 07:17:44 PM 34.9947 -120.3033 318° Northwest 473 544 36,000  Level Los Angeles Center
Sun 07:18:46 PM 35.1111 -120.4317 318° Northwest 472 543 36,000  Level Los Angeles Center
Sun 07:19:48 PM 35.2061 -120.5383 317° Northwest 470 541 36,000  Level Los Angeles Center
Sun 07:20:50 PM 35.3031 -120.6472 318° Northwest 472 543 36,000  Level Los Angeles Center
Sun 07:21:52 PM 35.4017 -120.7553 318° Northwest 474 545 36,000  Level Los Angeles Center
Sun 07:22:54 PM 35.4981 -120.8647 317° Northwest 474 545 36,000  Level Los Angeles Center
Sun 07:23:56 PM 35.6164 -120.9939 318° Northwest 474 545 36,000  Level Los Angeles Center
Sun 07:24:29 PM 35.6614 -121.0331 325° Northwest 474 545 36,000  Level Oakland Center
Sun 07:25:31 PM 35.7978 -121.1439 327° Northwest 484 557 36,000  Level Oakland Center
Sun 07:26:33 PM 35.9100 -121.2389 326° Northwest 487 560 36,000 -780 Level Oakland Center
Sun 07:27:34 PM 36.0208 -121.3336 325° Northwest 487 560 34,400 -976 Descending Oakland Center
Sun 07:28:36 PM 36.1311 -121.4269 326° Northwest 484 557 34,000 -1,659 Descending Oakland Center
Sun 07:29:37 PM 36.2394 -121.5217 325° Northwest 479 551 31,000 -3,024 Descending Oakland Center
Sun 07:30:39 PM 36.3511 -121.6178 325° Northwest 488 562 27,800 -3,170 Descending Oakland Center
Sun 07:32:33 PM 36.5667 -121.8000 326° Northwest 464 534 21,700 -3,138 Descending Northern Cal TRACON
Sun 07:33:33 PM 36.6667 -121.9000 321° Northwest 500 575 18,700 -2,450 Descending Northern Cal TRACON
Sun 07:34:33 PM 36.7667 -121.9667 332° Northwest 413 475 16,800 -1,900 Descending Northern Cal TRACON
Sun 07:35:33 PM 36.8667 -122.0000 345° North 386 444 14,900 -2,044 Descending Northern Cal TRACON
Sun 07:36:48 PM 36.9981 -122.0322 349° North 375 432 12,200 -1,985 Descending Oakland Center
Sun 07:37:49 PM 37.0942 -122.0572 348° North 361 415 10,400 -1,122 Descending Oakland Center
Sun 07:38:51 PM 37.1800 -122.0797 348° North 317 365 9,900 -1,073 Descending Oakland Center
Sun 07:39:52 PM 37.2600 -122.1006 348° North 294 338 8,200 -1,756 Descending Oakland Center
Sun 07:40:54 PM 37.3381 -122.1231 347° North 293 337 6,300 -1,895 Descending Oakland Center
Sun 07:41:27 PM 37.3833 -122.1333 350° North 291 335 5,200 -1,484 Descending Northern Cal TRACON
Sun 07:42:27 PM 37.4667 -122.1500 351° North 263 303 4,000 -933 Descending Northern Cal TRACON
Sun 07:42:57 PM 37.4867 -122.1625 334° Northwest 278 320 3,800 -1,043 Descending Oakland Center
Sun 07:43:59 PM 37.5417 -122.2042 329° Northwest 253 291 2,400 -1,220 Descending Oakland Center
Sun 07:45:00 PM 37.5775 -122.2781 301° West 221 254 1,300 -878 Descending Oakland Center
Sun 07:46:02 PM 37.5978 -122.3258 298° West 181 208 600 -677 Descending Oakland Center
Sun 07:49:00 PM 37.6167 -122.3667 322° Northwest  Level FlightAware Approximate

Login

Don't have an account? Register now (free) for customized features, flight alerts, and more!